createdAt,value
2023-01-21T00:02:06.276Z,8.07
2023-01-21T00:07:08.995Z,8.60
2023-01-21T00:12:11.483Z,8.27
2023-01-21T00:17:13.954Z,7.67
2023-01-21T00:22:16.153Z,8.90
2023-01-21T00:27:18.291Z,8.87
2023-01-21T00:32:20.507Z,8.27
2023-01-21T00:37:22.729Z,8.33
2023-01-21T00:42:24.855Z,9.70
2023-01-21T00:47:27.155Z,9.90
2023-01-21T00:52:29.316Z,9.90
2023-01-21T00:57:31.475Z,9.50
2023-01-21T01:02:33.958Z,9.77
2023-01-21T01:07:36.291Z,8.87
2023-01-21T01:12:38.454Z,8.27
2023-01-21T01:17:40.588Z,8.90
2023-01-21T01:22:42.722Z,8.20
2023-01-21T01:27:44.849Z,9.87
2023-01-21T01:32:47.126Z,9.00
2023-01-21T01:37:49.405Z,10.87
2023-01-21T01:42:51.679Z,8.50
2023-01-21T01:48:02.541Z,8.63
2023-01-21T01:53:05.355Z,9.50
2023-01-21T01:58:12.618Z,8.80
2023-01-21T02:03:35.498Z,8.70
2023-01-21T02:08:37.968Z,9.73
2023-01-21T02:13:43.954Z,9.80
2023-01-21T02:19:16.228Z,9.30
2023-01-21T02:25:18.018Z,7.77
2023-01-21T02:31:04.062Z,8.03
2023-01-21T02:36:31.794Z,9.93
2023-01-21T02:41:44.173Z,7.90
2023-01-21T02:47:16.848Z,9.53
2023-01-21T02:52:22.725Z,9.10
2023-01-21T02:57:41.864Z,9.60
2023-01-21T03:03:14.525Z,8.80
2023-01-21T03:08:21.862Z,8.03
2023-01-21T03:13:55.535Z,8.87
2023-01-21T03:19:02.626Z,8.27
2023-01-21T03:24:07.082Z,9.10
2023-01-21T03:29:18.418Z,9.57
2023-01-21T03:34:22.651Z,5.97
2023-01-21T03:39:37.858Z,5.53
2023-01-21T03:44:40.250Z,5.00
2023-01-21T03:50:10.391Z,6.50
2023-01-21T03:55:14.654Z,5.27
2023-01-21T04:00:18.004Z,5.20
2023-01-21T04:05:20.365Z,5.60
2023-01-21T04:10:22.583Z,5.50
2023-01-21T04:15:25.004Z,5.53
2023-01-21T04:20:27.200Z,4.30
2023-01-21T04:25:29.418Z,4.20
2023-01-21T04:30:31.730Z,4.57
2023-01-21T04:35:36.642Z,5.50
2023-01-21T04:40:38.782Z,5.97
2023-01-21T04:45:40.906Z,6.00
2023-01-21T04:50:42.997Z,6.47
2023-01-21T04:55:45.119Z,4.80
2023-01-21T05:00:47.434Z,5.27
2023-01-21T05:05:50.132Z,4.80
2023-01-21T05:10:53.137Z,5.10
2023-01-21T05:15:55.547Z,5.00
2023-01-21T05:20:57.658Z,6.10
2023-01-21T05:25:59.969Z,5.43
2023-01-21T05:31:03.459Z,5.60
2023-01-21T05:36:06.311Z,5.40
2023-01-21T05:41:08.676Z,7.30
2023-01-21T05:46:10.966Z,6.20
2023-01-21T05:51:13.603Z,6.07
2023-01-21T05:56:15.827Z,7.13
2023-01-21T06:01:18.059Z,8.80
2023-01-21T06:06:21.032Z,6.70
2023-01-21T06:11:23.855Z,6.10
2023-01-21T06:16:26.009Z,6.50
2023-01-21T06:21:28.365Z,7.47
2023-01-21T06:26:30.483Z,6.77
2023-01-21T06:31:32.759Z,7.13
2023-01-21T06:36:36.440Z,7.13
2023-01-21T06:41:38.942Z,7.00
2023-01-21T06:46:45.731Z,8.80
2023-01-21T06:51:49.118Z,11.90
2023-01-21T06:56:51.251Z,11.93
2023-01-21T07:01:53.668Z,10.73
2023-01-21T07:06:56.074Z,13.90
2023-01-21T07:11:58.721Z,10.27
2023-01-21T07:17:00.979Z,9.57
2023-01-21T07:22:03.226Z,7.80
2023-01-21T07:27:06.326Z,8.80
2023-01-21T07:32:08.540Z,8.17
2023-01-21T07:37:10.831Z,9.80
2023-01-21T07:42:13.054Z,8.13
2023-01-21T07:47:15.148Z,10.10
2023-01-21T07:52:18.069Z,11.33
2023-01-21T07:57:20.186Z,12.97
2023-01-21T08:02:22.653Z,12.63
2023-01-21T08:07:24.860Z,15.80
2023-01-21T08:12:27.461Z,13.63
2023-01-21T08:17:29.828Z,14.77
2023-01-21T08:22:32.367Z,14.97
2023-01-21T08:27:34.590Z,15.20
2023-01-21T08:32:37.033Z,13.70
2023-01-21T08:37:39.770Z,11.30
2023-01-21T08:42:42.146Z,11.80
2023-01-21T08:47:44.273Z,9.27
2023-01-21T08:52:56.770Z,11.80
2023-01-21T08:57:59.661Z,12.53
2023-01-21T09:03:01.925Z,12.87
2023-01-21T09:08:04.208Z,8.23
2023-01-21T09:13:08.139Z,9.40
2023-01-21T09:18:11.027Z,8.27
2023-01-21T09:23:25.758Z,4.73
2023-01-21T09:28:28.904Z,5.30
2023-01-21T09:33:33.043Z,3.90
2023-01-21T09:38:35.616Z,4.20
2023-01-21T09:43:44.652Z,4.60
2023-01-21T09:48:50.126Z,5.30
2023-01-21T09:53:57.254Z,4.10
2023-01-21T09:59:39.923Z,4.03
2023-01-21T10:04:57.207Z,4.80
2023-01-21T10:10:20.593Z,5.93
2023-01-21T10:16:14.348Z,5.33
2023-01-21T10:21:44.641Z,4.67
2023-01-21T10:26:50.190Z,4.97
2023-01-21T10:32:25.470Z,5.40
2023-01-21T10:37:37.393Z,5.20
2023-01-21T10:43:00.947Z,6.77
2023-01-21T10:48:28.906Z,21.33
2023-01-21T10:53:59.602Z,8.57
2023-01-21T10:59:30.498Z,8.10
2023-01-21T11:04:34.565Z,7.80
2023-01-21T11:09:44.865Z,8.40
2023-01-21T11:14:59.277Z,6.93
2023-01-21T11:20:05.911Z,7.67
2023-01-21T11:25:28.185Z,9.03
2023-01-21T11:30:50.739Z,9.23
2023-01-21T11:35:55.811Z,7.17
2023-01-21T11:41:11.087Z,7.17
2023-01-21T11:46:42.420Z,6.77
2023-01-21T11:51:47.246Z,7.93
2023-01-21T11:57:03.384Z,9.00
2023-01-21T12:02:15.590Z,10.80
2023-01-21T12:07:27.448Z,11.93
2023-01-21T12:12:55.548Z,12.20
2023-01-21T12:18:28.340Z,15.07
2023-01-21T12:23:51.809Z,14.00
2023-01-21T12:29:52.378Z,17.23
2023-01-21T12:35:11.613Z,16.93
2023-01-21T12:40:44.879Z,19.90
2023-01-21T12:45:58.490Z,18.57
2023-01-21T12:51:14.201Z,19.70
2023-01-21T12:56:32.930Z,19.67
2023-01-21T13:02:00.369Z,18.97
2023-01-21T13:07:27.248Z,17.60
2023-01-21T13:12:32.897Z,15.97
2023-01-21T13:17:38.345Z,17.83
2023-01-21T13:22:47.770Z,14.53
2023-01-21T13:28:24.745Z,12.97
2023-01-21T13:33:47.674Z,11.63
2023-01-21T13:39:17.233Z,15.03
2023-01-21T13:44:50.465Z,15.20
2023-01-21T13:50:06.348Z,15.77
2023-01-21T13:55:42.055Z,13.63
2023-01-21T14:00:57.751Z,13.33
2023-01-21T14:06:35.824Z,13.07
2023-01-21T14:12:00.459Z,11.40
2023-01-21T14:17:18.408Z,14.10
2023-01-21T14:23:06.103Z,13.97
2023-01-21T14:28:33.795Z,12.47
2023-01-21T14:34:24.758Z,13.30
2023-01-21T14:40:11.128Z,15.47
2023-01-21T14:45:17.213Z,14.80
2023-01-21T14:50:53.815Z,13.77
2023-01-21T14:56:09.254Z,15.43
2023-01-21T15:01:32.247Z,14.57
2023-01-21T15:06:39.659Z,16.17
2023-01-21T15:11:44.463Z,15.10
2023-01-21T15:16:48.034Z,18.20
2023-01-21T15:22:22.154Z,15.73
2023-01-21T15:27:28.648Z,16.60
2023-01-21T15:32:35.678Z,17.30
2023-01-21T15:37:41.409Z,15.27
2023-01-21T15:43:03.611Z,15.97
2023-01-21T15:48:09.751Z,19.93
2023-01-21T15:54:02.435Z,20.13
2023-01-21T15:59:26.828Z,18.30
2023-01-21T16:05:02.158Z,18.47
2023-01-21T16:10:39.286Z,20.13
2023-01-21T16:16:16.975Z,19.30
2023-01-21T16:21:23.726Z,20.27
2023-01-21T16:26:30.870Z,22.63
2023-01-21T16:31:59.435Z,20.20
2023-01-21T16:37:06.422Z,21.53
2023-01-21T16:42:24.870Z,20.37
2023-01-21T16:47:36.411Z,23.13
2023-01-21T16:52:38.610Z,19.57
2023-01-21T16:57:50.415Z,19.27
2023-01-21T17:02:53.124Z,19.03
2023-01-21T17:07:59.059Z,18.27
2023-01-21T17:13:11.860Z,20.87
2023-01-21T17:18:26.341Z,17.27
2023-01-21T17:23:34.478Z,18.90
2023-01-21T17:29:17.393Z,17.50
2023-01-21T17:34:26.221Z,18.93
2023-01-21T17:39:46.555Z,18.40
2023-01-21T17:45:05.033Z,18.77
2023-01-21T17:50:27.864Z,17.80
2023-01-21T17:55:40.327Z,17.77
2023-01-21T18:00:45.828Z,18.03
2023-01-21T18:05:49.115Z,17.47
2023-01-21T18:10:51.341Z,18.23
2023-01-21T18:15:54.246Z,19.37
2023-01-21T18:20:56.750Z,18.17
2023-01-21T18:26:00.026Z,19.00
2023-01-21T18:31:02.666Z,16.80
2023-01-21T18:36:05.220Z,17.47
2023-01-21T18:41:08.916Z,17.93
2023-01-21T18:46:19.885Z,16.50
2023-01-21T18:51:22.539Z,17.50
2023-01-21T18:56:24.734Z,16.10
2023-01-21T19:01:26.968Z,17.90
2023-01-21T19:06:29.152Z,21.60
2023-01-21T19:11:31.492Z,26.20
2023-01-21T19:16:33.726Z,23.50
2023-01-21T19:21:36.008Z,18.97
2023-01-21T19:26:38.624Z,20.87
2023-01-21T19:31:41.040Z,18.07
2023-01-21T19:36:43.311Z,16.57
2023-01-21T19:41:45.633Z,18.03
2023-01-21T19:46:47.812Z,16.93
2023-01-21T19:51:50.138Z,18.23
2023-01-21T19:56:52.469Z,16.73
2023-01-21T20:01:54.734Z,16.00
2023-01-21T20:06:56.995Z,13.53
2023-01-21T20:11:59.449Z,17.73
2023-01-21T20:17:02.991Z,14.47
2023-01-21T20:22:05.256Z,16.00
2023-01-21T20:27:09.599Z,14.10
2023-01-21T20:32:13.258Z,12.50
2023-01-21T20:37:15.612Z,15.23
2023-01-21T20:42:17.736Z,14.50
2023-01-21T20:47:32.645Z,17.47
2023-01-21T20:52:40.887Z,15.30
2023-01-21T20:57:43.000Z,16.13
2023-01-21T21:02:46.477Z,19.37
2023-01-21T21:07:48.615Z,19.63
2023-01-21T21:12:52.030Z,20.20
2023-01-21T21:17:55.332Z,15.20
2023-01-21T21:22:57.527Z,16.87
2023-01-21T21:27:59.728Z,15.33
2023-01-21T21:33:02.504Z,16.87
2023-01-21T21:38:09.921Z,17.20
2023-01-21T21:43:32.754Z,15.77
2023-01-21T21:48:38.035Z,16.90
2023-01-21T21:53:41.359Z,11.07
2023-01-21T21:58:43.873Z,14.40
2023-01-21T22:03:46.773Z,15.00
2023-01-21T22:08:49.700Z,12.30
2023-01-21T22:13:53.162Z,21.87
2023-01-21T22:18:57.660Z,12.80
2023-01-21T22:24:01.701Z,15.57
2023-01-21T22:29:05.841Z,11.53
2023-01-21T22:34:09.205Z,13.00
2023-01-21T22:39:12.609Z,14.47
2023-01-21T22:44:14.790Z,13.93
2023-01-21T22:49:17.046Z,15.07
2023-01-21T22:54:19.271Z,13.00
2023-01-21T22:59:21.575Z,12.50
2023-01-21T23:04:23.829Z,14.03
2023-01-21T23:09:26.126Z,14.17
2023-01-21T23:14:28.241Z,16.33
2023-01-21T23:19:30.476Z,14.10
2023-01-21T23:24:32.559Z,15.00
2023-01-21T23:29:34.884Z,15.67
2023-01-21T23:34:37.213Z,13.20
2023-01-21T23:39:39.374Z,14.43
2023-01-21T23:44:41.516Z,13.40
2023-01-21T23:49:43.917Z,14.20
2023-01-21T23:54:46.308Z,13.50
2023-01-21T23:59:48.703Z,14.53
